sensor_id;sensor_type;location;lat;lon;timestamp;temperature;humidity
65072;DHT22;51663;52.310;17.016;2022-07-29T00:02:42;34.30;24.80
65072;DHT22;51663;52.310;17.016;2022-07-29T00:05:44;34.40;24.90
65072;DHT22;51663;52.310;17.016;2022-07-29T00:08:46;34.50;24.70
65072;DHT22;51663;52.310;17.016;2022-07-29T00:11:48;34.60;25.00
65072;DHT22;51663;52.310;17.016;2022-07-29T00:14:51;34.60;24.80
65072;DHT22;51663;52.310;17.016;2022-07-29T00:17:54;34.60;24.80
65072;DHT22;51663;52.310;17.016;2022-07-29T00:20:56;34.70;25.00
65072;DHT22;51663;52.310;17.016;2022-07-29T00:23:58;34.70;24.90
65072;DHT22;51663;52.310;17.016;2022-07-29T00:27:00;34.60;25.10
65072;DHT22;51663;52.310;17.016;2022-07-29T00:30:03;34.60;25.00
65072;DHT22;51663;52.310;17.016;2022-07-29T00:33:05;34.30;25.70
65072;DHT22;51663;52.310;17.016;2022-07-29T00:36:10;34.30;25.30
65072;DHT22;51663;52.310;17.016;2022-07-29T00:39:12;34.10;25.40
65072;DHT22;51663;52.310;17.016;2022-07-29T00:42:14;34.10;25.40
65072;DHT22;51663;52.310;17.016;2022-07-29T00:45:16;33.60;26.00
65072;DHT22;51663;52.310;17.016;2022-07-29T00:48:19;33.50;26.10
65072;DHT22;51663;52.310;17.016;2022-07-29T00:51:21;33.00;26.60
65072;DHT22;51663;52.310;17.016;2022-07-29T00:54:23;33.00;26.60
65072;DHT22;51663;52.310;17.016;2022-07-29T00:57:25;32.80;27.00
65072;DHT22;51663;52.310;17.016;2022-07-29T01:00:28;32.80;27.20
65072;DHT22;51663;52.310;17.016;2022-07-29T01:03:31;32.90;27.00
65072;DHT22;51663;52.310;17.016;2022-07-29T01:06:33;32.90;27.10
65072;DHT22;51663;52.310;17.016;2022-07-29T01:09:36;32.90;27.20
65072;DHT22;51663;52.310;17.016;2022-07-29T01:12:50;33.00;27.00
65072;DHT22;51663;52.310;17.016;2022-07-29T01:15:59;32.80;27.40
65072;DHT22;51663;52.310;17.016;2022-07-29T01:19:18;33.10;27.30
65072;DHT22;51663;52.310;17.016;2022-07-29T01:25:54;33.20;27.50
65072;DHT22;51663;52.310;17.016;2022-07-29T01:32:18;33.50;27.10
65072;DHT22;51663;52.310;17.016;2022-07-29T01:35:40;33.40;27.30
65072;DHT22;51663;52.310;17.016;2022-07-29T01:38:48;32.40;28.30
65072;DHT22;51663;52.310;17.016;2022-07-29T01:45:52;32.60;28.30
65072;DHT22;51663;52.310;17.016;2022-07-29T01:49:06;33.30;27.60
65072;DHT22;51663;52.310;17.016;2022-07-29T01:52:38;32.90;28.20
65072;DHT22;51663;52.310;17.016;2022-07-29T01:55:44;33.50;27.70
65072;DHT22;51663;52.310;17.016;2022-07-29T01:58:49;33.40;27.90
65072;DHT22;51663;52.310;17.016;2022-07-29T02:01:54;33.50;27.70
65072;DHT22;51663;52.310;17.016;2022-07-29T02:05:00;33.80;27.30
65072;DHT22;51663;52.310;17.016;2022-07-29T02:08:04;33.90;27.20
65072;DHT22;51663;52.310;17.016;2022-07-29T02:11:08;33.90;27.30
65072;DHT22;51663;52.310;17.016;2022-07-29T02:14:12;33.90;27.40
65072;DHT22;51663;52.310;17.016;2022-07-29T02:17:22;33.60;27.70
65072;DHT22;51663;52.310;17.016;2022-07-29T02:20:25;33.70;27.90
65072;DHT22;51663;52.310;17.016;2022-07-29T02:23:30;33.70;27.70
65072;DHT22;51663;52.310;17.016;2022-07-29T02:26:54;33.60;28.10
65072;DHT22;51663;52.310;17.016;2022-07-29T02:29:58;33.20;28.60
65072;DHT22;51663;52.310;17.016;2022-07-29T02:33:03;33.50;28.60
65072;DHT22;51663;52.310;17.016;2022-07-29T02:36:05;33.30;28.70
65072;DHT22;51663;52.310;17.016;2022-07-29T02:39:08;33.00;29.00
65072;DHT22;51663;52.310;17.016;2022-07-29T02:42:14;32.90;29.30
65072;DHT22;51663;52.310;17.016;2022-07-29T02:45:17;33.10;29.40
65072;DHT22;51663;52.310;17.016;2022-07-29T02:48:25;33.30;29.20
65072;DHT22;51663;52.310;17.016;2022-07-29T02:51:36;33.50;29.00
65072;DHT22;51663;52.310;17.016;2022-07-29T02:58:38;33.20;29.50
65072;DHT22;51663;52.310;17.016;2022-07-29T03:01:42;33.20;29.60
65072;DHT22;51663;52.310;17.016;2022-07-29T03:04:46;33.20;29.60
65072;DHT22;51663;52.310;17.016;2022-07-29T03:08:03;32.80;30.10
65072;DHT22;51663;52.310;17.016;2022-07-29T03:11:07;32.50;30.10
65072;DHT22;51663;52.310;17.016;2022-07-29T03:14:10;32.10;31.20
65072;DHT22;51663;52.310;17.016;2022-07-29T03:17:13;31.90;31.40
65072;DHT22;51663;52.310;17.016;2022-07-29T03:20:16;31.30;32.50
65072;DHT22;51663;52.310;17.016;2022-07-29T03:23:20;31.80;31.60
65072;DHT22;51663;52.310;17.016;2022-07-29T03:26:25;31.60;32.40
65072;DHT22;51663;52.310;17.016;2022-07-29T03:29:27;32.10;31.70
65072;DHT22;51663;52.310;17.016;2022-07-29T03:32:35;31.10;32.60
65072;DHT22;51663;52.310;17.016;2022-07-29T03:35:38;31.10;33.00
65072;DHT22;51663;52.310;17.016;2022-07-29T03:38:42;30.60;34.40
65072;DHT22;51663;52.310;17.016;2022-07-29T03:41:48;31.40;33.20
65072;DHT22;51663;52.310;17.016;2022-07-29T03:44:52;30.70;34.00
65072;DHT22;51663;52.310;17.016;2022-07-29T03:48:02;31.70;33.10
65072;DHT22;51663;52.310;17.016;2022-07-29T03:51:07;32.00;32.40
65072;DHT22;51663;52.310;17.016;2022-07-29T03:54:09;31.70;32.60
65072;DHT22;51663;52.310;17.016;2022-07-29T03:57:13;31.50;33.10
65072;DHT22;51663;52.310;17.016;2022-07-29T04:00:16;30.70;35.00
65072;DHT22;51663;52.310;17.016;2022-07-29T04:03:19;31.30;33.90
65072;DHT22;51663;52.310;17.016;2022-07-29T04:06:21;32.20;32.50
65072;DHT22;51663;52.310;17.016;2022-07-29T04:09:23;31.60;33.10
65072;DHT22;51663;52.310;17.016;2022-07-29T04:12:25;32.30;32.20
65072;DHT22;51663;52.310;17.016;2022-07-29T04:15:27;32.60;31.60
65072;DHT22;51663;52.310;17.016;2022-07-29T04:18:32;33.10;31.10
65072;DHT22;51663;52.310;17.016;2022-07-29T04:21:40;32.60;31.90
65072;DHT22;51663;52.310;17.016;2022-07-29T04:24:43;33.30;31.10
65072;DHT22;51663;52.310;17.016;2022-07-29T04:27:45;33.00;31.40
65072;DHT22;51663;52.310;17.016;2022-07-29T04:31:02;33.10;31.30
65072;DHT22;51663;52.310;17.016;2022-07-29T04:34:04;33.90;30.50
65072;DHT22;51663;52.310;17.016;2022-07-29T04:37:07;35.00;29.50
65072;DHT22;51663;52.310;17.016;2022-07-29T04:40:09;35.60;28.70
65072;DHT22;51663;52.310;17.016;2022-07-29T04:43:11;35.40;28.70
65072;DHT22;51663;52.310;17.016;2022-07-29T04:46:15;35.30;28.80
65072;DHT22;51663;52.310;17.016;2022-07-29T04:49:17;34.80;29.40
65072;DHT22;51663;52.310;17.016;2022-07-29T04:52:19;35.50;28.90
65072;DHT22;51663;52.310;17.016;2022-07-29T04:55:21;35.30;29.20
65072;DHT22;51663;52.310;17.016;2022-07-29T04:58:24;35.70;29.20
65072;DHT22;51663;52.310;17.016;2022-07-29T05:01:26;37.20;27.70
65072;DHT22;51663;52.310;17.016;2022-07-29T05:04:28;38.30;26.80
65072;DHT22;51663;52.310;17.016;2022-07-29T05:07:30;39.00;26.10
65072;DHT22;51663;52.310;17.016;2022-07-29T05:10:32;39.70;25.40
65072;DHT22;51663;52.310;17.016;2022-07-29T05:13:37;40.10;24.80
65072;DHT22;51663;52.310;17.016;2022-07-29T05:16:46;40.30;24.90
65072;DHT22;51663;52.310;17.016;2022-07-29T05:19:48;40.10;24.90
65072;DHT22;51663;52.310;17.016;2022-07-29T05:22:53;40.30;24.80
65072;DHT22;51663;52.310;17.016;2022-07-29T05:25:55;40.30;24.70
65072;DHT22;51663;52.310;17.016;2022-07-29T05:28:57;40.60;24.40
65072;DHT22;51663;52.310;17.016;2022-07-29T05:31:59;41.00;24.10
65072;DHT22;51663;52.310;17.016;2022-07-29T05:35:01;41.30;23.80
65072;DHT22;51663;52.310;17.016;2022-07-29T05:38:03;41.40;24.10
65072;DHT22;51663;52.310;17.016;2022-07-29T05:41:06;41.80;23.60
65072;DHT22;51663;52.310;17.016;2022-07-29T05:44:08;42.30;23.00
65072;DHT22;51663;52.310;17.016;2022-07-29T05:47:10;42.50;22.70
65072;DHT22;51663;52.310;17.016;2022-07-29T05:50:13;42.90;22.50
65072;DHT22;51663;52.310;17.016;2022-07-29T05:53:15;42.50;22.50
65072;DHT22;51663;52.310;17.016;2022-07-29T05:56:21;42.60;22.50
65072;DHT22;51663;52.310;17.016;2022-07-29T05:59:23;42.60;22.40
65072;DHT22;51663;52.310;17.016;2022-07-29T06:02:31;42.30;22.30
65072;DHT22;51663;52.310;17.016;2022-07-29T06:05:33;42.30;22.40
65072;DHT22;51663;52.310;17.016;2022-07-29T06:08:35;42.50;22.20
65072;DHT22;51663;52.310;17.016;2022-07-29T06:11:38;42.70;22.30
65072;DHT22;51663;52.310;17.016;2022-07-29T06:14:40;43.00;22.50
65072;DHT22;51663;52.310;17.016;2022-07-29T06:17:42;42.60;22.40
65072;DHT22;51663;52.310;17.016;2022-07-29T06:21:01;42.40;22.20
65072;DHT22;51663;52.310;17.016;2022-07-29T06:24:10;42.50;22.30
65072;DHT22;51663;52.310;17.016;2022-07-29T06:27:12;42.90;22.10
65072;DHT22;51663;52.310;17.016;2022-07-29T06:30:14;43.40;21.70
65072;DHT22;51663;52.310;17.016;2022-07-29T06:33:17;43.60;21.40
65072;DHT22;51663;52.310;17.016;2022-07-29T06:36:20;43.20;21.90
65072;DHT22;51663;52.310;17.016;2022-07-29T06:39:25;43.70;21.40
65072;DHT22;51663;52.310;17.016;2022-07-29T06:42:27;43.80;21.30
65072;DHT22;51663;52.310;17.016;2022-07-29T06:45:29;43.80;21.30
65072;DHT22;51663;52.310;17.016;2022-07-29T06:48:32;43.90;21.20
65072;DHT22;51663;52.310;17.016;2022-07-29T06:51:34;43.70;21.10
65072;DHT22;51663;52.310;17.016;2022-07-29T06:54:37;43.30;21.20
65072;DHT22;51663;52.310;17.016;2022-07-29T06:57:40;42.80;21.40
65072;DHT22;51663;52.310;17.016;2022-07-29T07:00:43;42.70;21.80
65072;DHT22;51663;52.310;17.016;2022-07-29T07:03:45;42.60;22.00
65072;DHT22;51663;52.310;17.016;2022-07-29T07:06:47;42.50;21.90
65072;DHT22;51663;52.310;17.016;2022-07-29T07:09:49;42.30;21.70
65072;DHT22;51663;52.310;17.016;2022-07-29T07:12:51;42.10;22.20
65072;DHT22;51663;52.310;17.016;2022-07-29T07:15:53;41.80;21.80
65072;DHT22;51663;52.310;17.016;2022-07-29T07:18:56;41.40;22.20
65072;DHT22;51663;52.310;17.016;2022-07-29T07:21:58;41.30;22.00
65072;DHT22;51663;52.310;17.016;2022-07-29T07:25:02;41.10;22.10
65072;DHT22;51663;52.310;17.016;2022-07-29T07:28:04;40.70;22.30
65072;DHT22;51663;52.310;17.016;2022-07-29T07:31:06;40.60;22.50
65072;DHT22;51663;52.310;17.016;2022-07-29T07:34:09;40.40;23.10
65072;DHT22;51663;52.310;17.016;2022-07-29T07:37:11;40.20;22.80
65072;DHT22;51663;52.310;17.016;2022-07-29T07:40:14;40.60;22.50
65072;DHT22;51663;52.310;17.016;2022-07-29T07:43:19;40.60;22.60
65072;DHT22;51663;52.310;17.016;2022-07-29T07:46:21;40.50;22.60
65072;DHT22;51663;52.310;17.016;2022-07-29T07:49:24;40.20;22.90
65072;DHT22;51663;52.310;17.016;2022-07-29T07:52:28;40.20;22.90
65072;DHT22;51663;52.310;17.016;2022-07-29T07:55:31;40.00;22.80
65072;DHT22;51663;52.310;17.016;2022-07-29T07:58:53;40.00;22.80
65072;DHT22;51663;52.310;17.016;2022-07-29T08:01:55;39.90;23.10
65072;DHT22;51663;52.310;17.016;2022-07-29T08:04:57;39.90;23.00
65072;DHT22;51663;52.310;17.016;2022-07-29T08:08:01;39.80;23.20
65072;DHT22;51663;52.310;17.016;2022-07-29T08:11:03;39.80;23.30
65072;DHT22;51663;52.310;17.016;2022-07-29T08:14:10;39.30;23.30
65072;DHT22;51663;52.310;17.016;2022-07-29T08:17:14;39.50;23.50
65072;DHT22;51663;52.310;17.016;2022-07-29T08:20:16;39.80;23.20
65072;DHT22;51663;52.310;17.016;2022-07-29T08:23:18;39.50;23.50
65072;DHT22;51663;52.310;17.016;2022-07-29T08:26:21;39.80;23.20
65072;DHT22;51663;52.310;17.016;2022-07-29T08:29:24;39.80;22.70
65072;DHT22;51663;52.310;17.016;2022-07-29T08:32:26;40.00;23.00
65072;DHT22;51663;52.310;17.016;2022-07-29T08:35:50;40.10;22.90
65072;DHT22;51663;52.310;17.016;2022-07-29T08:38:52;40.30;22.70
65072;DHT22;51663;52.310;17.016;2022-07-29T08:41:54;40.40;22.40
65072;DHT22;51663;52.310;17.016;2022-07-29T08:44:58;40.60;22.70
65072;DHT22;51663;52.310;17.016;2022-07-29T08:48:01;40.60;22.60
65072;DHT22;51663;52.310;17.016;2022-07-29T08:51:03;40.60;22.30
65072;DHT22;51663;52.310;17.016;2022-07-29T08:54:08;40.50;22.40
65072;DHT22;51663;52.310;17.016;2022-07-29T08:57:14;40.20;22.90
65072;DHT22;51663;52.310;17.016;2022-07-29T09:00:18;39.80;23.10
65072;DHT22;51663;52.310;17.016;2022-07-29T09:03:23;39.70;23.40
65072;DHT22;51663;52.310;17.016;2022-07-29T09:06:28;40.00;23.20
65072;DHT22;51663;52.310;17.016;2022-07-29T09:09:33;40.20;22.50
65072;DHT22;51663;52.310;17.016;2022-07-29T09:12:35;40.20;21.80
65072;DHT22;51663;52.310;17.016;2022-07-29T09:15:39;40.20;21.90
65072;DHT22;51663;52.310;17.016;2022-07-29T09:18:43;40.40;21.60
65072;DHT22;51663;52.310;17.016;2022-07-29T09:21:45;40.40;21.70
65072;DHT22;51663;52.310;17.016;2022-07-29T09:24:59;40.20;21.60
65072;DHT22;51663;52.310;17.016;2022-07-29T09:28:13;40.30;22.10
65072;DHT22;51663;52.310;17.016;2022-07-29T09:31:15;40.30;21.90
65072;DHT22;51663;52.310;17.016;2022-07-29T09:34:28;40.00;21.80
65072;DHT22;51663;52.310;17.016;2022-07-29T09:37:32;39.80;21.70
65072;DHT22;51663;52.310;17.016;2022-07-29T09:40:34;40.10;21.70
65072;DHT22;51663;52.310;17.016;2022-07-29T09:43:36;39.60;21.70
65072;DHT22;51663;52.310;17.016;2022-07-29T09:46:39;39.60;21.80
65072;DHT22;51663;52.310;17.016;2022-07-29T09:49:54;39.50;21.90
65072;DHT22;51663;52.310;17.016;2022-07-29T09:52:57;39.70;22.30
65072;DHT22;51663;52.310;17.016;2022-07-29T09:55:59;39.90;21.50
65072;DHT22;51663;52.310;17.016;2022-07-29T09:59:08;39.80;21.40
65072;DHT22;51663;52.310;17.016;2022-07-29T10:02:14;39.40;21.50
65072;DHT22;51663;52.310;17.016;2022-07-29T10:05:26;38.90;21.70
65072;DHT22;51663;52.310;17.016;2022-07-29T10:08:41;38.70;21.60
65072;DHT22;51663;52.310;17.016;2022-07-29T10:12:05;39.10;21.40
65072;DHT22;51663;52.310;17.016;2022-07-29T10:15:08;39.00;21.40
65072;DHT22;51663;52.310;17.016;2022-07-29T10:18:11;38.90;21.70
65072;DHT22;51663;52.310;17.016;2022-07-29T10:21:13;39.10;22.10
65072;DHT22;51663;52.310;17.016;2022-07-29T10:24:37;38.80;21.80
65072;DHT22;51663;52.310;17.016;2022-07-29T10:27:39;38.80;21.90
65072;DHT22;51663;52.310;17.016;2022-07-29T10:30:42;38.90;22.30
65072;DHT22;51663;52.310;17.016;2022-07-29T10:37:24;38.00;22.80
65072;DHT22;51663;52.310;17.016;2022-07-29T10:44:17;38.60;22.70
65072;DHT22;51663;52.310;17.016;2022-07-29T10:47:25;38.80;22.60
65072;DHT22;51663;52.310;17.016;2022-07-29T10:50:27;38.30;22.50
65072;DHT22;51663;52.310;17.016;2022-07-29T10:54:00;38.50;22.40
65072;DHT22;51663;52.310;17.016;2022-07-29T10:57:18;39.00;22.00
65072;DHT22;51663;52.310;17.016;2022-07-29T11:00:43;38.10;22.50
65072;DHT22;51663;52.310;17.016;2022-07-29T11:03:47;38.00;22.40
65072;DHT22;51663;52.310;17.016;2022-07-29T11:07:06;38.30;22.60
65072;DHT22;51663;52.310;17.016;2022-07-29T11:13:46;38.10;22.70
65072;DHT22;51663;52.310;17.016;2022-07-29T11:17:04;38.60;22.70
65072;DHT22;51663;52.310;17.016;2022-07-29T11:23:43;39.00;22.10
65072;DHT22;51663;52.310;17.016;2022-07-29T11:30:20;37.50;23.50
65072;DHT22;51663;52.310;17.016;2022-07-29T11:33:33;38.00;22.90
65072;DHT22;51663;52.310;17.016;2022-07-29T11:40:16;39.00;22.10
65072;DHT22;51663;52.310;17.016;2022-07-29T11:43:48;39.60;21.60
65072;DHT22;51663;52.310;17.016;2022-07-29T11:46:53;40.00;21.40
65072;DHT22;51663;52.310;17.016;2022-07-29T11:49:56;39.70;21.20
65072;DHT22;51663;52.310;17.016;2022-07-29T11:53:02;38.60;22.30
65072;DHT22;51663;52.310;17.016;2022-07-29T11:56:13;38.10;23.10
65072;DHT22;51663;52.310;17.016;2022-07-29T11:59:40;38.90;21.90
65072;DHT22;51663;52.310;17.016;2022-07-29T12:02:44;38.30;23.00
65072;DHT22;51663;52.310;17.016;2022-07-29T12:05:49;38.50;22.80
65072;DHT22;51663;52.310;17.016;2022-07-29T12:08:52;39.10;22.40
65072;DHT22;51663;52.310;17.016;2022-07-29T12:11:58;39.30;21.60
65072;DHT22;51663;52.310;17.016;2022-07-29T12:15:14;38.90;22.00
65072;DHT22;51663;52.310;17.016;2022-07-29T12:18:18;39.20;21.80
65072;DHT22;51663;52.310;17.016;2022-07-29T12:21:25;39.70;21.70
65072;DHT22;51663;52.310;17.016;2022-07-29T12:24:43;39.90;21.70
65072;DHT22;51663;52.310;17.016;2022-07-29T12:27:46;39.80;21.70
65072;DHT22;51663;52.310;17.016;2022-07-29T12:30:50;39.70;21.50
65072;DHT22;51663;52.310;17.016;2022-07-29T12:33:53;39.30;22.20
65072;DHT22;51663;52.310;17.016;2022-07-29T12:36:57;37.90;22.20
65072;DHT22;51663;52.310;17.016;2022-07-29T12:40:00;37.80;23.00
65072;DHT22;51663;52.310;17.016;2022-07-29T12:46:15;38.40;22.40
65072;DHT22;51663;52.310;17.016;2022-07-29T12:49:21;38.90;22.10
65072;DHT22;51663;52.310;17.016;2022-07-29T12:52:30;38.90;22.00
65072;DHT22;51663;52.310;17.016;2022-07-29T12:55:43;38.90;22.00
65072;DHT22;51663;52.310;17.016;2022-07-29T12:58:47;38.70;22.50
65072;DHT22;51663;52.310;17.016;2022-07-29T13:01:52;38.60;22.10
65072;DHT22;51663;52.310;17.016;2022-07-29T13:04:59;38.30;23.00
65072;DHT22;51663;52.310;17.016;2022-07-29T13:08:13;39.20;21.90
65072;DHT22;51663;52.310;17.016;2022-07-29T13:11:36;39.10;21.50
65072;DHT22;51663;52.310;17.016;2022-07-29T13:14:47;39.40;21.40
65072;DHT22;51663;52.310;17.016;2022-07-29T13:17:50;39.60;21.40
65072;DHT22;51663;52.310;17.016;2022-07-29T13:20:53;39.20;21.90
65072;DHT22;51663;52.310;17.016;2022-07-29T13:23:55;38.90;22.00
65072;DHT22;51663;52.310;17.016;2022-07-29T13:26:57;38.60;22.10
65072;DHT22;51663;52.310;17.016;2022-07-29T13:30:01;38.90;21.60
65072;DHT22;51663;52.310;17.016;2022-07-29T13:33:04;39.60;21.80
65072;DHT22;51663;52.310;17.016;2022-07-29T13:36:06;39.80;21.40
65072;DHT22;51663;52.310;17.016;2022-07-29T13:39:08;39.80;21.20
65072;DHT22;51663;52.310;17.016;2022-07-29T13:42:10;39.40;21.30
65072;DHT22;51663;52.310;17.016;2022-07-29T13:45:15;38.90;21.50
65072;DHT22;51663;52.310;17.016;2022-07-29T13:48:17;37.70;22.60
65072;DHT22;51663;52.310;17.016;2022-07-29T13:51:19;37.10;23.30
65072;DHT22;51663;52.310;17.016;2022-07-29T13:54:21;37.80;23.10
65072;DHT22;51663;52.310;17.016;2022-07-29T13:57:24;37.70;23.00
65072;DHT22;51663;52.310;17.016;2022-07-29T14:00:26;38.40;22.90
65072;DHT22;51663;52.310;17.016;2022-07-29T14:03:28;38.30;22.30
65072;DHT22;51663;52.310;17.016;2022-07-29T14:06:30;37.90;22.00
65072;DHT22;51663;52.310;17.016;2022-07-29T14:09:32;38.30;21.80
65072;DHT22;51663;52.310;17.016;2022-07-29T14:12:42;38.90;21.40
65072;DHT22;51663;52.310;17.016;2022-07-29T14:15:45;38.80;21.00
65072;DHT22;51663;52.310;17.016;2022-07-29T14:18:47;39.00;20.50
65072;DHT22;51663;52.310;17.016;2022-07-29T14:21:50;39.70;20.20
65072;DHT22;51663;52.310;17.016;2022-07-29T14:24:52;39.70;20.40
65072;DHT22;51663;52.310;17.016;2022-07-29T14:27:54;39.10;20.60
65072;DHT22;51663;52.310;17.016;2022-07-29T14:30:59;39.00;20.80
65072;DHT22;51663;52.310;17.016;2022-07-29T14:34:01;39.30;20.40
65072;DHT22;51663;52.310;17.016;2022-07-29T14:37:04;38.70;20.70
65072;DHT22;51663;52.310;17.016;2022-07-29T14:40:09;39.40;20.30
65072;DHT22;51663;52.310;17.016;2022-07-29T14:43:11;39.30;20.10
65072;DHT22;51663;52.310;17.016;2022-07-29T14:46:13;40.00;19.80
65072;DHT22;51663;52.310;17.016;2022-07-29T14:49:15;40.30;19.70
65072;DHT22;51663;52.310;17.016;2022-07-29T14:52:17;40.60;19.60
65072;DHT22;51663;52.310;17.016;2022-07-29T14:55:20;40.00;19.80
65072;DHT22;51663;52.310;17.016;2022-07-29T14:58:22;40.40;19.80
65072;DHT22;51663;52.310;17.016;2022-07-29T15:01:24;40.80;19.50
65072;DHT22;51663;52.310;17.016;2022-07-29T15:04:27;41.00;19.60
65072;DHT22;51663;52.310;17.016;2022-07-29T15:07:29;41.20;19.30
65072;DHT22;51663;52.310;17.016;2022-07-29T15:10:33;41.00;18.80
65072;DHT22;51663;52.310;17.016;2022-07-29T15:13:35;41.00;18.60
65072;DHT22;51663;52.310;17.016;2022-07-29T15:16:39;41.20;18.90
65072;DHT22;51663;52.310;17.016;2022-07-29T15:19:48;40.80;18.80
65072;DHT22;51663;52.310;17.016;2022-07-29T15:22:51;40.50;19.40
65072;DHT22;51663;52.310;17.016;2022-07-29T15:25:53;40.50;19.40
65072;DHT22;51663;52.310;17.016;2022-07-29T15:28:55;40.20;19.90
65072;DHT22;51663;52.310;17.016;2022-07-29T15:31:57;39.80;20.10
65072;DHT22;51663;52.310;17.016;2022-07-29T15:35:00;40.40;19.60
65072;DHT22;51663;52.310;17.016;2022-07-29T15:38:02;40.40;19.20
65072;DHT22;51663;52.310;17.016;2022-07-29T15:41:04;40.50;19.20
65072;DHT22;51663;52.310;17.016;2022-07-29T15:44:06;40.60;19.30
65072;DHT22;51663;52.310;17.016;2022-07-29T15:47:08;40.80;19.20
65072;DHT22;51663;52.310;17.016;2022-07-29T15:50:11;40.70;19.10
65072;DHT22;51663;52.310;17.016;2022-07-29T15:53:17;40.70;19.40
65072;DHT22;51663;52.310;17.016;2022-07-29T15:56:19;40.50;19.40
65072;DHT22;51663;52.310;17.016;2022-07-29T15:59:22;40.70;19.10
65072;DHT22;51663;52.310;17.016;2022-07-29T16:02:24;41.00;19.10
65072;DHT22;51663;52.310;17.016;2022-07-29T16:05:27;41.00;19.10
65072;DHT22;51663;52.310;17.016;2022-07-29T16:08:31;40.20;19.90
65072;DHT22;51663;52.310;17.016;2022-07-29T16:11:33;39.80;20.10
65072;DHT22;51663;52.310;17.016;2022-07-29T16:14:35;40.20;20.00
65072;DHT22;51663;52.310;17.016;2022-07-29T16:17:38;40.10;20.20
65072;DHT22;51663;52.310;17.016;2022-07-29T16:20:40;40.30;20.30
65072;DHT22;51663;52.310;17.016;2022-07-29T16:23:44;39.70;20.70
65072;DHT22;51663;52.310;17.016;2022-07-29T16:26:46;39.30;21.00
65072;DHT22;51663;52.310;17.016;2022-07-29T16:29:48;39.10;21.20
65072;DHT22;51663;52.310;17.016;2022-07-29T16:32:51;38.90;20.90
65072;DHT22;51663;52.310;17.016;2022-07-29T16:35:53;39.20;21.20
65072;DHT22;51663;52.310;17.016;2022-07-29T16:38:55;39.50;20.70
65072;DHT22;51663;52.310;17.016;2022-07-29T16:41:57;39.40;20.70
65072;DHT22;51663;52.310;17.016;2022-07-29T16:45:04;39.60;20.90
65072;DHT22;51663;52.310;17.016;2022-07-29T16:48:06;39.70;20.90
65072;DHT22;51663;52.310;17.016;2022-07-29T16:51:08;38.90;21.30
65072;DHT22;51663;52.310;17.016;2022-07-29T16:54:15;38.60;21.70
65072;DHT22;51663;52.310;17.016;2022-07-29T16:57:17;38.30;21.90
65072;DHT22;51663;52.310;17.016;2022-07-29T17:00:20;38.90;21.60
65072;DHT22;51663;52.310;17.016;2022-07-29T17:03:22;39.00;21.40
65072;DHT22;51663;52.310;17.016;2022-07-29T17:06:25;39.20;21.10
65072;DHT22;51663;52.310;17.016;2022-07-29T17:09:27;39.30;20.90
65072;DHT22;51663;52.310;17.016;2022-07-29T17:12:30;39.40;21.00
65072;DHT22;51663;52.310;17.016;2022-07-29T17:15:32;39.10;21.20
65072;DHT22;51663;52.310;17.016;2022-07-29T17:18:37;39.30;21.00
65072;DHT22;51663;52.310;17.016;2022-07-29T17:21:39;39.00;21.20
65072;DHT22;51663;52.310;17.016;2022-07-29T17:24:50;39.20;21.20
65072;DHT22;51663;52.310;17.016;2022-07-29T17:27:52;39.20;21.10
65072;DHT22;51663;52.310;17.016;2022-07-29T17:31:01;39.30;21.20
65072;DHT22;51663;52.310;17.016;2022-07-29T17:34:04;39.20;21.50
65072;DHT22;51663;52.310;17.016;2022-07-29T17:37:08;39.30;21.80
65072;DHT22;51663;52.310;17.016;2022-07-29T17:40:11;39.10;21.90
65072;DHT22;51663;52.310;17.016;2022-07-29T17:43:13;38.70;22.00
65072;DHT22;51663;52.310;17.016;2022-07-29T17:46:16;38.70;22.30
65072;DHT22;51663;52.310;17.016;2022-07-29T17:49:19;39.00;22.20
65072;DHT22;51663;52.310;17.016;2022-07-29T17:52:21;38.60;22.50
65072;DHT22;51663;52.310;17.016;2022-07-29T17:55:23;38.40;22.80
65072;DHT22;51663;52.310;17.016;2022-07-29T17:58:26;38.20;22.60
65072;DHT22;51663;52.310;17.016;2022-07-29T18:01:28;38.00;22.90
65072;DHT22;51663;52.310;17.016;2022-07-29T18:04:30;38.00;23.10
65072;DHT22;51663;52.310;17.016;2022-07-29T18:07:32;38.00;23.10
65072;DHT22;51663;52.310;17.016;2022-07-29T18:10:37;37.30;23.40
65072;DHT22;51663;52.310;17.016;2022-07-29T18:13:40;37.90;23.00
65072;DHT22;51663;52.310;17.016;2022-07-29T18:16:42;38.30;22.80
65072;DHT22;51663;52.310;17.016;2022-07-29T18:19:44;38.50;22.60
65072;DHT22;51663;52.310;17.016;2022-07-29T18:22:46;38.60;22.60
65072;DHT22;51663;52.310;17.016;2022-07-29T18:25:48;38.90;22.60
65072;DHT22;51663;52.310;17.016;2022-07-29T18:28:50;38.80;22.40
65072;DHT22;51663;52.310;17.016;2022-07-29T18:31:53;38.90;22.50
65072;DHT22;51663;52.310;17.016;2022-07-29T18:34:55;38.90;22.40
65072;DHT22;51663;52.310;17.016;2022-07-29T18:37:57;38.90;22.40
65072;DHT22;51663;52.310;17.016;2022-07-29T18:41:03;38.60;22.50
65072;DHT22;51663;52.310;17.016;2022-07-29T18:44:05;37.90;23.20
65072;DHT22;51663;52.310;17.016;2022-07-29T18:47:07;38.30;23.10
65072;DHT22;51663;52.310;17.016;2022-07-29T18:50:12;38.20;22.90
65072;DHT22;51663;52.310;17.016;2022-07-29T18:53:15;38.40;23.00
65072;DHT22;51663;52.310;17.016;2022-07-29T18:56:18;38.30;23.00
65072;DHT22;51663;52.310;17.016;2022-07-29T18:59:20;38.50;22.80
65072;DHT22;51663;52.310;17.016;2022-07-29T19:02:22;38.50;23.00
65072;DHT22;51663;52.310;17.016;2022-07-29T19:05:25;38.80;22.70
65072;DHT22;51663;52.310;17.016;2022-07-29T19:08:29;38.50;22.80
65072;DHT22;51663;52.310;17.016;2022-07-29T19:11:31;38.30;23.20
65072;DHT22;51663;52.310;17.016;2022-07-29T19:14:33;38.40;23.00
65072;DHT22;51663;52.310;17.016;2022-07-29T19:17:35;38.00;23.50
65072;DHT22;51663;52.310;17.016;2022-07-29T19:20:38;38.10;23.50
65072;DHT22;51663;52.310;17.016;2022-07-29T19:23:40;38.30;23.30
65072;DHT22;51663;52.310;17.016;2022-07-29T19:27:02;38.30;23.40
65072;DHT22;51663;52.310;17.016;2022-07-29T19:30:05;38.40;23.40
65072;DHT22;51663;52.310;17.016;2022-07-29T19:33:09;38.30;23.50
65072;DHT22;51663;52.310;17.016;2022-07-29T19:36:10;37.90;23.60
65072;DHT22;51663;52.310;17.016;2022-07-29T19:39:13;38.40;23.50
65072;DHT22;51663;52.310;17.016;2022-07-29T19:42:16;38.40;23.30
65072;DHT22;51663;52.310;17.016;2022-07-29T19:45:19;38.00;23.70
65072;DHT22;51663;52.310;17.016;2022-07-29T19:48:22;37.90;23.80